Time;durP1;ratioP1;P1;durP2;ratioP2;P2;SDS_P1;SDS_P2;PMS_P1;PMS_P2;Temp;Humidity;BMP_temperature;BMP_pressure;BME280_temperature;BME280_humidity;BME280_pressure;Samples;Min_cycle;Max_cycle;Signal;HPM_P1;HPM_P2
2024/02/29 00:02:12;;;;;;;3.58;2.25;;;;;;;;;;10374504;28;20429;-63
2024/02/29 00:07:13;;;;;;;4.93;2.13;;;;;;;;;;10372922;28;20525;-63
2024/02/29 00:12:13;;;;;;;3.28;1.83;;;;;;;;;;10372233;28;20030;-62
2024/02/29 00:17:14;;;;;;;2.72;1.73;;;;;;;;;;10373426;28;20034;-63
2024/02/29 00:22:14;;;;;;;4.85;1.88;;;;;;;;;;10373476;28;20018;-65
2024/02/29 00:27:15;;;;;;;3.25;2.10;;;;;;;;;;10373386;28;20250;-66
2024/02/29 00:32:16;;;;;;;5.18;2.15;;;;;;;;;;10373356;28;20033;-65
2024/02/29 00:37:17;;;;;;;4.93;1.85;;;;;;;;;;10373141;28;20034;-66
2024/02/29 00:42:17;;;;;;;6.47;2.15;;;;;;;;;;10372133;28;20030;-63
2024/02/29 00:47:18;;;;;;;4.63;2.35;;;;;;;;;;10372750;28;20049;-66
2024/02/29 00:52:18;;;;;;;5.20;2.00;;;;;;;;;;10372119;28;20385;-66
2024/02/29 00:57:19;;;;;;;2.72;1.92;;;;;;;;;;10371831;28;20033;-64
2024/02/29 01:02:19;;;;;;;5.57;2.22;;;;;;;;;;10371924;28;20029;-63
2024/02/29 01:07:20;;;;;;;6.72;2.50;;;;;;;;;;10372448;28;20465;-62
2024/02/29 01:12:21;;;;;;;2.45;1.73;;;;;;;;;;10371692;28;20425;-63
2024/02/29 01:17:22;;;;;;;2.95;2.20;;;;;;;;;;10371384;28;20053;-63
2024/02/29 01:22:24;;;;;;;3.13;1.80;;;;;;;;;;10371405;28;20229;-63
2024/02/29 01:27:25;;;;;;;5.10;2.38;;;;;;;;;;10370628;28;20462;-63
2024/02/29 01:32:25;;;;;;;5.13;2.08;;;;;;;;;;10370571;28;20037;-63
2024/02/29 01:37:26;;;;;;;4.13;2.42;;;;;;;;;;10370899;28;20087;-64
2024/02/29 01:42:26;;;;;;;4.35;2.05;;;;;;;;;;10370294;28;20037;-63
2024/02/29 01:47:27;;;;;;;6.25;2.03;;;;;;;;;;10370931;28;20034;-63
2024/02/29 01:52:30;;;;;;;5.72;2.13;;;;;;;;;;10370416;28;20037;-64
2024/02/29 01:57:31;;;;;;;3.40;2.17;;;;;;;;;;10368460;28;20532;-64
2024/02/29 02:02:32;;;;;;;3.83;2.22;;;;;;;;;;10367552;28;20026;-64
2024/02/29 02:07:35;;;;;;;2.88;1.95;;;;;;;;;;10369062;28;20145;-64
2024/02/29 02:12:37;;;;;;;3.22;2.13;;;;;;;;;;10369569;28;20045;-63
2024/02/29 02:17:37;;;;;;;7.20;2.35;;;;;;;;;;10369122;28;20482;-64
2024/02/29 02:22:38;;;;;;;5.10;2.17;;;;;;;;;;10368725;28;20462;-64
2024/02/29 02:27:38;;;;;;;6.20;2.00;;;;;;;;;;10368477;28;20026;-63
2024/02/29 02:32:40;;;;;;;3.47;2.22;;;;;;;;;;10368387;28;20038;-63
2024/02/29 02:37:40;;;;;;;8.15;2.30;;;;;;;;;;10368454;28;20470;-63
2024/02/29 02:42:41;;;;;;;3.55;1.77;;;;;;;;;;10367446;28;20033;-63
2024/02/29 02:47:41;;;;;;;3.88;2.03;;;;;;;;;;10367712;28;20166;-63
2024/02/29 02:52:42;;;;;;;2.97;1.70;;;;;;;;;;10368126;28;20044;-65
2024/02/29 02:57:43;;;;;;;3.00;1.98;;;;;;;;;;10367567;28;20034;-65
2024/02/29 03:02:44;;;;;;;3.80;2.10;;;;;;;;;;10366520;28;20053;-65
2024/02/29 03:07:45;;;;;;;2.80;1.73;;;;;;;;;;10368156;28;20466;-64
2024/02/29 03:12:47;;;;;;;6.28;2.00;;;;;;;;;;10367172;28;20042;-64
2024/02/29 03:17:47;;;;;;;4.05;1.77;;;;;;;;;;10367776;28;20164;-63
2024/02/29 03:22:48;;;;;;;2.72;1.85;;;;;;;;;;10366942;28;20367;-63
2024/02/29 03:27:50;;;;;;;2.42;1.80;;;;;;;;;;10366750;28;20045;-64
2024/02/29 03:32:53;;;;;;;3.80;1.77;;;;;;;;;;10366665;28;20351;-65
2024/02/29 03:37:54;;;;;;;3.03;1.73;;;;;;;;;;10366579;28;20083;-63
2024/02/29 03:42:54;;;;;;;2.38;1.63;;;;;;;;;;10365810;28;20032;-62
2024/02/29 03:47:55;;;;;;;4.45;1.80;;;;;;;;;;10366248;28;20037;-64
2024/02/29 03:52:56;;;;;;;2.25;1.48;;;;;;;;;;10366622;28;20517;-64
2024/02/29 03:57:56;;;;;;;1.50;1.40;;;;;;;;;;10366778;28;20312;-64
2024/02/29 04:02:57;;;;;;;3.35;1.90;;;;;;;;;;10366004;28;20107;-64
2024/02/29 04:08:03;;;;;;;2.55;1.58;;;;;;;;;;10365965;28;20029;-64
2024/02/29 04:13:04;;;;;;;2.47;1.63;;;;;;;;;;10366662;28;20022;-65
2024/02/29 04:18:05;;;;;;;6.28;2.25;;;;;;;;;;10366190;28;20022;-64
2024/02/29 04:23:05;;;;;;;3.25;1.40;;;;;;;;;;10365840;28;20088;-64
2024/02/29 04:28:06;;;;;;;2.20;1.73;;;;;;;;;;10369175;28;20095;-64
2024/02/29 04:33:06;;;;;;;2.10;1.40;;;;;;;;;;10373587;28;20304;-64
2024/02/29 04:38:07;;;;;;;3.83;1.80;;;;;;;;;;10373305;28;20403;-64
2024/02/29 04:43:08;;;;;;;2.00;1.60;;;;;;;;;;10372739;28;20465;-64
2024/02/29 04:48:09;;;;;;;1.92;1.23;;;;;;;;;;10372950;28;20125;-62
2024/02/29 04:53:09;;;;;;;2.63;1.70;;;;;;;;;;10372675;28;20056;-63
2024/02/29 04:58:10;;;;;;;2.53;1.70;;;;;;;;;;10372196;28;20034;-69
2024/02/29 05:03:11;;;;;;;2.50;1.58;;;;;;;;;;10371769;28;20041;-66
2024/02/29 05:08:12;;;;;;;1.73;1.40;;;;;;;;;;10371803;28;20549;-66
2024/02/29 05:13:13;;;;;;;2.85;1.63;;;;;;;;;;10372242;28;20118;-67
2024/02/29 05:18:14;;;;;;;2.72;1.52;;;;;;;;;;10371963;28;20030;-67
2024/02/29 05:23:14;;;;;;;1.55;1.40;;;;;;;;;;10371720;28;20216;-68
2024/02/29 05:28:15;;;;;;;4.07;1.73;;;;;;;;;;10371392;28;20030;-67
2024/02/29 05:33:16;;;;;;;2.63;1.50;;;;;;;;;;10371027;28;20110;-69
2024/02/29 05:38:17;;;;;;;2.85;1.60;;;;;;;;;;10369648;28;20540;-69
2024/02/29 05:43:18;;;;;;;2.05;1.52;;;;;;;;;;10370243;28;20430;-69
2024/02/29 05:48:18;;;;;;;4.22;1.55;;;;;;;;;;10369704;28;20029;-69
2024/02/29 05:53:19;;;;;;;7.30;1.85;;;;;;;;;;10370088;28;20084;-69
2024/02/29 05:58:19;;;;;;;4.63;1.48;;;;;;;;;;10369979;28;20052;-67
2024/02/29 06:03:20;;;;;;;1.70;1.50;;;;;;;;;;10369486;28;20046;-64
2024/02/29 06:08:21;;;;;;;2.30;1.45;;;;;;;;;;10367886;28;20044;-69
2024/02/29 06:13:21;;;;;;;3.25;1.40;;;;;;;;;;10368114;28;20034;-69
2024/02/29 06:18:22;;;;;;;1.77;1.50;;;;;;;;;;10367587;28;20034;-69
2024/02/29 06:23:22;;;;;;;2.40;1.67;;;;;;;;;;10368110;28;20032;-64
2024/02/29 06:28:23;;;;;;;3.53;1.52;;;;;;;;;;10369037;28;20092;-64
2024/02/29 06:33:25;;;;;;;1.58;1.42;;;;;;;;;;10367222;28;20032;-63
2024/02/29 06:38:25;;;;;;;1.67;1.30;;;;;;;;;;10369189;28;20022;-62
2024/02/29 06:43:26;;;;;;;1.30;1.20;;;;;;;;;;10368439;28;20038;-63
2024/02/29 06:48:26;;;;;;;1.30;1.20;;;;;;;;;;10368869;28;20033;-64
2024/02/29 06:53:30;;;;;;;3.90;1.83;;;;;;;;;;10367244;28;20026;-63
2024/02/29 06:58:32;;;;;;;12.30;2.65;;;;;;;;;;10367437;28;20034;-63
2024/02/29 07:03:33;;;;;;;3.85;1.60;;;;;;;;;;10366994;28;20049;-62
2024/02/29 07:08:36;;;;;;;12.82;2.72;;;;;;;;;;10368037;28;20053;-64
2024/02/29 07:13:38;;;;;;;18.00;2.70;;;;;;;;;;10366168;28;20038;-63
2024/02/29 07:18:38;;;;;;;30.42;3.25;;;;;;;;;;10365948;28;20594;-64
2024/02/29 07:23:39;;;;;;;22.85;2.80;;;;;;;;;;10366735;28;20069;-64
2024/02/29 07:28:40;;;;;;;21.92;3.35;;;;;;;;;;10367171;28;20033;-64
2024/02/29 07:33:40;;;;;;;14.30;3.20;;;;;;;;;;10366856;28;20030;-63
2024/02/29 07:38:41;;;;;;;7.50;2.75;;;;;;;;;;10366820;28;20037;-63
2024/02/29 07:43:42;;;;;;;18.30;3.38;;;;;;;;;;10367482;28;20034;-63
2024/02/29 07:48:43;;;;;;;11.90;2.88;;;;;;;;;;10367015;28;20378;-63
2024/02/29 07:53:44;;;;;;;16.02;3.13;;;;;;;;;;10367210;28;20026;-63
2024/02/29 07:58:44;;;;;;;8.95;2.38;;;;;;;;;;10366420;28;20044;-63
2024/02/29 08:03:45;;;;;;;7.88;2.58;;;;;;;;;;10371103;28;20107;-63
2024/02/29 08:08:45;;;;;;;10.88;2.85;;;;;;;;;;10374250;28;20022;-63
2024/02/29 08:13:46;;;;;;;19.80;2.55;;;;;;;;;;10373966;28;20037;-63
2024/02/29 08:18:47;;;;;;;5.38;2.22;;;;;;;;;;10373536;28;20056;-63
2024/02/29 08:23:47;;;;;;;4.68;2.15;;;;;;;;;;10373961;28;20055;-63
2024/02/29 08:28:49;;;;;;;4.03;2.58;;;;;;;;;;10373898;28;20026;-63
2024/02/29 08:33:50;;;;;;;4.65;1.92;;;;;;;;;;10372959;28;20436;-63
2024/02/29 08:38:50;;;;;;;3.20;2.22;;;;;;;;;;10373232;28;20088;-63
2024/02/29 08:43:51;;;;;;;6.05;2.30;;;;;;;;;;10372574;28;20037;-63
2024/02/29 08:48:51;;;;;;;5.85;2.53;;;;;;;;;;10372974;28;20029;-63
2024/02/29 08:53:52;;;;;;;7.45;2.60;;;;;;;;;;10372538;28;20034;-63
2024/02/29 08:58:52;;;;;;;3.35;1.98;;;;;;;;;;10372527;28;20173;-63
2024/02/29 09:03:53;;;;;;;9.32;2.35;;;;;;;;;;10371986;28;20116;-63
2024/02/29 09:08:53;;;;;;;10.27;2.40;;;;;;;;;;10372038;28;20032;-64
2024/02/29 09:13:56;;;;;;;5.53;2.03;;;;;;;;;;10371351;28;20053;-63
2024/02/29 09:18:56;;;;;;;8.40;2.33;;;;;;;;;;10372016;28;20109;-63
2024/02/29 09:23:57;;;;;;;6.20;2.45;;;;;;;;;;10371463;28;20489;-63
2024/02/29 09:28:58;;;;;;;15.68;2.55;;;;;;;;;;10371071;28;20092;-63
2024/02/29 09:34:19;;;;;;;6.45;2.65;;;;;;;;;;10370691;28;20041;-63
2024/02/29 09:39:19;;;;;;;5.63;2.38;;;;;;;;;;10323970;28;20096;-63
2024/02/29 09:44:20;;;;;;;4.68;2.13;;;;;;;;;;10323734;28;20034;-64
2024/02/29 09:49:22;;;;;;;5.53;2.47;;;;;;;;;;10323915;28;20557;-63
2024/02/29 09:54:23;;;;;;;8.25;2.13;;;;;;;;;;10323150;28;20034;-63
2024/02/29 09:59:24;;;;;;;6.18;2.30;;;;;;;;;;10323487;28;20371;-64
2024/02/29 10:04:26;;;;;;;6.65;2.30;;;;;;;;;;10321343;28;20133;-63
2024/02/29 10:09:30;;;;;;;3.17;2.00;;;;;;;;;;10322953;28;20050;-63
2024/02/29 10:14:30;;;;;;;2.88;2.00;;;;;;;;;;10339899;28;20041;-64
2024/02/29 10:19:33;;;;;;;6.15;2.17;;;;;;;;;;10369592;28;20088;-63
2024/02/29 10:24:34;;;;;;;5.22;2.15;;;;;;;;;;10367000;28;20080;-63
2024/02/29 10:29:35;;;;;;;4.22;2.03;;;;;;;;;;10368681;28;20026;-63
2024/02/29 10:34:35;;;;;;;8.88;2.33;;;;;;;;;;10368826;28;20057;-63
2024/02/29 10:39:38;;;;;;;3.83;1.90;;;;;;;;;;10367715;28;20145;-63
2024/02/29 10:44:42;;;;;;;8.13;2.40;;;;;;;;;;10368135;28;20200;-64
2024/02/29 10:49:46;;;;;;;5.13;2.33;;;;;;;;;;10368607;28;20069;-63
2024/02/29 10:55:05;;;;;;;6.65;2.50;;;;;;;;;;10368141;28;20040;-63
2024/02/29 11:00:08;;;;;;;3.55;2.35;;;;;;;;;;10368139;28;20030;-63
2024/02/29 11:05:09;;;;;;;6.20;2.10;;;;;;;;;;10366081;28;20057;-64
2024/02/29 11:10:10;;;;;;;5.32;2.30;;;;;;;;;;10366445;28;20147;-63
2024/02/29 11:15:11;;;;;;;5.30;2.20;;;;;;;;;;10366222;28;20535;-63
2024/02/29 11:20:20;;;;;;;4.05;2.00;;;;;;;;;;10366707;28;20040;-64
2024/02/29 11:25:21;;;;;;;3.35;2.03;;;;;;;;;;10366809;28;20052;-63
2024/02/29 11:30:23;;;;;;;7.85;2.30;;;;;;;;;;10366783;28;20064;-63
2024/02/29 11:35:25;;;;;;;3.80;2.42;;;;;;;;;;10366847;28;20389;-63
2024/02/29 11:40:26;;;;;;;4.68;2.38;;;;;;;;;;10375372;28;20057;-63
2024/02/29 11:45:27;;;;;;;3.72;2.20;;;;;;;;;;10373037;28;20034;-63
2024/02/29 11:50:27;;;;;;;10.10;2.45;;;;;;;;;;10374810;28;20022;-64
2024/02/29 11:55:28;;;;;;;7.05;2.47;;;;;;;;;;10374809;28;20034;-63
2024/02/29 12:00:29;;;;;;;7.50;2.47;;;;;;;;;;10374086;28;20099;-63
2024/02/29 12:05:31;;;;;;;5.55;2.35;;;;;;;;;;10373659;28;20259;-63
2024/02/29 12:10:32;;;;;;;4.82;2.47;;;;;;;;;;10374117;28;20034;-63
2024/02/29 12:15:37;;;;;;;4.28;2.20;;;;;;;;;;10374968;28;20457;-63
2024/02/29 12:20:38;;;;;;;3.72;2.35;;;;;;;;;;10373599;28;20425;-63
2024/02/29 12:25:38;;;;;;;6.10;2.22;;;;;;;;;;10372964;28;20030;-63
2024/02/29 12:30:39;;;;;;;3.80;2.60;;;;;;;;;;10371799;28;20022;-63
2024/02/29 12:35:42;;;;;;;10.23;2.30;;;;;;;;;;10372760;28;20079;-63
2024/02/29 12:40:44;;;;;;;4.50;2.38;;;;;;;;;;10372335;28;20076;-63
2024/02/29 12:45:45;;;;;;;6.10;2.33;;;;;;;;;;10369863;28;20117;-64
2024/02/29 12:50:45;;;;;;;6.90;2.28;;;;;;;;;;10372400;28;20026;-64
2024/02/29 12:55:47;;;;;;;4.85;2.33;;;;;;;;;;10370806;28;20080;-64
2024/02/29 13:00:47;;;;;;;5.35;2.35;;;;;;;;;;10371938;28;20030;-64
2024/02/29 13:05:48;;;;;;;6.57;2.90;;;;;;;;;;10371428;28;20045;-64
2024/02/29 13:10:49;;;;;;;4.25;2.60;;;;;;;;;;10370511;28;20040;-64
2024/02/29 13:15:50;;;;;;;9.73;2.83;;;;;;;;;;10371717;28;20026;-64
2024/02/29 13:20:51;;;;;;;5.60;2.42;;;;;;;;;;10371476;28;20022;-64
2024/02/29 13:25:51;;;;;;;6.32;2.92;;;;;;;;;;10371295;28;20037;-64
2024/02/29 13:30:52;;;;;;;7.00;2.70;;;;;;;;;;10371518;28;20026;-64
2024/02/29 13:35:53;;;;;;;6.35;3.05;;;;;;;;;;10370609;28;20030;-63
2024/02/29 13:40:53;;;;;;;3.70;2.38;;;;;;;;;;10370267;28;20228;-64
2024/02/29 13:45:54;;;;;;;5.88;2.78;;;;;;;;;;10369814;28;20037;-63
2024/02/29 13:50:54;;;;;;;8.60;2.80;;;;;;;;;;10368055;28;20072;-63
2024/02/29 13:55:58;;;;;;;6.13;2.78;;;;;;;;;;10369313;28;20505;-64
2024/02/29 14:00:58;;;;;;;7.85;2.63;;;;;;;;;;10368322;28;20032;-63
2024/02/29 14:05:59;;;;;;;5.32;2.80;;;;;;;;;;10369068;28;20053;-63
2024/02/29 14:11:00;;;;;;;6.90;2.83;;;;;;;;;;10369262;28;20076;-63
2024/02/29 14:16:01;;;;;;;5.22;2.75;;;;;;;;;;10368140;28;20034;-63
2024/02/29 14:21:02;;;;;;;4.53;2.70;;;;;;;;;;10368878;28;20046;-64
2024/02/29 14:26:03;;;;;;;6.90;2.53;;;;;;;;;;10367579;28;20030;-64
2024/02/29 14:31:04;;;;;;;7.30;2.47;;;;;;;;;;10367187;28;20338;-63
2024/02/29 14:36:07;;;;;;;9.40;3.10;;;;;;;;;;10368169;28;20076;-62
2024/02/29 14:41:10;;;;;;;12.52;3.30;;;;;;;;;;10367644;28;20022;-63
2024/02/29 14:46:12;;;;;;;38.60;4.03;;;;;;;;;;10351102;28;20029;-65
2024/02/29 14:51:12;;;;;;;51.38;6.63;;;;;;;;;;10366498;28;20036;-62
2024/02/29 14:56:13;;;;;;;37.33;4.93;;;;;;;;;;10366564;28;20500;-60
2024/02/29 15:01:14;;;;;;;28.80;4.60;;;;;;;;;;10367997;28;20112;-59
2024/02/29 15:06:17;;;;;;;43.38;4.88;;;;;;;;;;10367183;28;20108;-59
2024/02/29 15:11:18;;;;;;;22.42;4.43;;;;;;;;;;10367807;28;20034;-59
2024/02/29 15:16:19;;;;;;;28.10;3.70;;;;;;;;;;10367251;28;20029;-62
2024/02/29 15:21:20;;;;;;;18.45;4.00;;;;;;;;;;10367336;28;20041;-61
2024/02/29 15:26:21;;;;;;;21.85;4.13;;;;;;;;;;10366472;28;20037;-60
2024/02/29 15:31:21;;;;;;;15.48;3.80;;;;;;;;;;10365797;28;20068;-63
2024/02/29 15:36:22;;;;;;;18.20;3.75;;;;;;;;;;10367077;28;20185;-60
2024/02/29 15:41:22;;;;;;;13.52;3.88;;;;;;;;;;10365389;28;20026;-60
2024/02/29 15:46:22;;;;;;;17.38;4.13;;;;;;;;;;10367653;28;20358;-60
2024/02/29 15:51:24;;;;;;;8.90;3.33;;;;;;;;;;10365674;28;20052;-61
2024/02/29 15:56:25;;;;;;;7.53;3.10;;;;;;;;;;10366303;28;20037;-60
2024/02/29 16:01:25;;;;;;;14.10;3.67;;;;;;;;;;10365364;28;20034;-60
2024/02/29 16:06:26;;;;;;;14.45;3.92;;;;;;;;;;10366015;28;20471;-60
2024/02/29 16:11:26;;;;;;;8.85;3.10;;;;;;;;;;10367275;28;20417;-59
2024/02/29 16:16:27;;;;;;;7.27;3.30;;;;;;;;;;10365438;28;20046;-59
2024/02/29 16:21:28;;;;;;;8.90;3.00;;;;;;;;;;10366236;28;20462;-60
2024/02/29 16:26:29;;;;;;;12.68;3.10;;;;;;;;;;10372953;28;20385;-60
2024/02/29 16:31:29;;;;;;;8.50;3.40;;;;;;;;;;10373506;28;20033;-60
2024/02/29 16:36:30;;;;;;;14.57;3.35;;;;;;;;;;10374031;28;20033;-60
2024/02/29 16:41:31;;;;;;;9.15;3.10;;;;;;;;;;10373101;28;20397;-61
2024/02/29 16:46:32;;;;;;;8.15;3.30;;;;;;;;;;10372389;28;20041;-60
2024/02/29 16:51:33;;;;;;;9.13;3.53;;;;;;;;;;10371795;28;20057;-60
2024/02/29 16:56:34;;;;;;;9.63;3.70;;;;;;;;;;10372708;28;20113;-60
2024/02/29 17:01:35;;;;;;;7.40;3.00;;;;;;;;;;10371733;28;20393;-60
2024/02/29 17:06:36;;;;;;;7.95;3.30;;;;;;;;;;10387909;23;20105;-56
2024/02/29 17:11:37;;;;;;;13.68;3.13;;;;;;;;;;10377725;28;20117;-61
2024/02/29 17:16:37;;;;;;;9.68;3.00;;;;;;;;;;10369963;28;20489;-60
2024/02/29 17:21:38;;;;;;;11.73;3.17;;;;;;;;;;10369788;28;20388;-60
2024/02/29 17:26:40;;;;;;;8.05;3.30;;;;;;;;;;10370808;28;20052;-59
2024/02/29 17:31:40;;;;;;;5.63;2.83;;;;;;;;;;10371021;28;20412;-56
2024/02/29 17:36:44;;;;;;;8.05;3.25;;;;;;;;;;10369800;28;20041;-62
2024/02/29 17:41:46;;;;;;;6.40;3.38;;;;;;;;;;10368236;28;20033;-59
2024/02/29 17:46:46;;;;;;;8.05;3.17;;;;;;;;;;10369054;28;20539;-61
2024/02/29 17:51:47;;;;;;;10.80;3.33;;;;;;;;;;10368959;28;20080;-60
2024/02/29 17:56:51;;;;;;;6.88;3.35;;;;;;;;;;10369898;28;20025;-60
2024/02/29 18:01:52;;;;;;;5.57;3.03;;;;;;;;;;10366520;28;20029;-59
2024/02/29 18:06:53;;;;;;;10.52;2.95;;;;;;;;;;10367321;28;20049;-60
2024/02/29 18:11:54;;;;;;;6.70;2.83;;;;;;;;;;10367749;28;20026;-59
2024/02/29 18:16:56;;;;;;;8.77;3.97;;;;;;;;;;10367207;28;20034;-58
2024/02/29 18:21:58;;;;;;;6.72;3.50;;;;;;;;;;10368066;28;20605;-61
2024/02/29 18:26:59;;;;;;;8.25;2.88;;;;;;;;;;10367553;28;20500;-61
2024/02/29 18:32:00;;;;;;;3.83;2.88;;;;;;;;;;10367481;28;20048;-60
2024/02/29 18:37:00;;;;;;;3.78;2.58;;;;;;;;;;10367383;28;20025;-61
2024/02/29 18:42:01;;;;;;;5.93;3.00;;;;;;;;;;10367087;28;20354;-61
2024/02/29 18:47:02;;;;;;;8.57;2.95;;;;;;;;;;10366021;28;20034;-61
2024/02/29 18:52:02;;;;;;;6.32;2.40;;;;;;;;;;10367761;28;20070;-61
2024/02/29 18:57:03;;;;;;;7.03;3.47;;;;;;;;;;10367184;28;20026;-60
2024/02/29 19:02:04;;;;;;;6.07;3.53;;;;;;;;;;10368547;28;20559;-61
2024/02/29 19:07:04;;;;;;;9.52;2.95;;;;;;;;;;10367105;28;20528;-57
2024/02/29 19:12:06;;;;;;;7.70;3.00;;;;;;;;;;10368242;28;20041;-61
2024/02/29 19:17:07;;;;;;;5.70;2.80;;;;;;;;;;10365930;28;20363;-61
2024/02/29 19:22:08;;;;;;;7.10;3.20;;;;;;;;;;10367351;28;20293;-60
2024/02/29 19:27:08;;;;;;;10.82;3.90;;;;;;;;;;10367698;28;20311;-60
2024/02/29 19:32:09;;;;;;;8.98;3.33;;;;;;;;;;10367618;28;20060;-60
2024/02/29 19:37:10;;;;;;;6.07;3.22;;;;;;;;;;10367593;28;20022;-58
2024/02/29 19:42:10;;;;;;;6.35;2.70;;;;;;;;;;10367365;28;20030;-59
2024/02/29 19:47:11;;;;;;;5.85;2.97;;;;;;;;;;10366828;28;20029;-59
2024/02/29 19:52:11;;;;;;;6.97;3.08;;;;;;;;;;10367273;28;20038;-60
2024/02/29 19:57:12;;;;;;;4.38;2.85;;;;;;;;;;10367668;28;20037;-60
2024/02/29 20:02:13;;;;;;;3.92;2.78;;;;;;;;;;10374561;28;20026;-59
2024/02/29 20:07:15;;;;;;;4.88;2.75;;;;;;;;;;10374407;28;20386;-59
2024/02/29 20:12:15;;;;;;;4.80;3.08;;;;;;;;;;10373049;28;20052;-56
2024/02/29 20:17:16;;;;;;;4.30;2.55;;;;;;;;;;10374555;28;20022;-53
2024/02/29 20:22:16;;;;;;;10.70;3.35;;;;;;;;;;10374372;28;20438;-58
2024/02/29 20:27:22;;;;;;;4.57;2.63;;;;;;;;;;10373931;28;20026;-59
2024/02/29 20:32:22;;;;;;;6.70;2.95;;;;;;;;;;10373755;28;20033;-57
2024/02/29 20:37:23;;;;;;;5.40;2.83;;;;;;;;;;10373306;28;20033;-58
2024/02/29 20:42:24;;;;;;;5.40;2.90;;;;;;;;;;10373056;28;20292;-59
2024/02/29 20:47:26;;;;;;;4.10;2.60;;;;;;;;;;10372845;28;20375;-58
2024/02/29 20:52:27;;;;;;;5.75;2.97;;;;;;;;;;10372630;28;20363;-59
2024/02/29 20:57:29;;;;;;;4.53;3.08;;;;;;;;;;10372428;28;20030;-56
2024/02/29 21:02:29;;;;;;;6.15;3.20;;;;;;;;;;10372022;28;20108;-59
2024/02/29 21:07:33;;;;;;;4.20;3.03;;;;;;;;;;10372155;28;20040;-59
2024/02/29 21:12:33;;;;;;;5.85;3.03;;;;;;;;;;10371926;28;20108;-60
2024/02/29 21:17:34;;;;;;;4.85;2.72;;;;;;;;;;10371641;28;20029;-57
2024/02/29 21:22:35;;;;;;;4.95;2.88;;;;;;;;;;10371574;28;20026;-61
2024/02/29 21:27:36;;;;;;;4.00;2.60;;;;;;;;;;10387005;28;20034;-60
2024/02/29 21:32:36;;;;;;;6.15;2.83;;;;;;;;;;10371351;28;20018;-58
2024/02/29 21:37:37;;;;;;;3.53;2.60;;;;;;;;;;10371079;28;20022;-61
2024/02/29 21:42:38;;;;;;;4.82;3.05;;;;;;;;;;10371412;28;20076;-59
2024/02/29 21:47:39;;;;;;;4.32;2.85;;;;;;;;;;10371018;28;20033;-58
2024/02/29 21:52:39;;;;;;;7.50;3.15;;;;;;;;;;10369920;28;20037;-60
2024/02/29 21:57:40;;;;;;;3.83;2.90;;;;;;;;;;10370545;28;20018;-60
2024/02/29 22:02:41;;;;;;;10.73;2.80;;;;;;;;;;10369899;28;20052;-55
2024/02/29 22:07:41;;;;;;;5.18;2.75;;;;;;;;;;10369612;28;20033;-56
2024/02/29 22:12:42;;;;;;;9.73;3.28;;;;;;;;;;10369751;28;20025;-53
2024/02/29 22:17:42;;;;;;;10.23;3.15;;;;;;;;;;10369424;28;20089;-54
2024/02/29 22:22:43;;;;;;;7.60;3.08;;;;;;;;;;10367823;28;20041;-56
2024/02/29 22:27:44;;;;;;;10.73;3.58;;;;;;;;;;10369086;28;20458;-60
2024/02/29 22:32:44;;;;;;;12.13;3.35;;;;;;;;;;10369550;28;20025;-61
2024/02/29 22:37:45;;;;;;;8.02;3.10;;;;;;;;;;10366746;28;20481;-58
2024/02/29 22:42:45;;;;;;;10.35;3.28;;;;;;;;;;10368230;28;20029;-60
2024/02/29 22:47:46;;;;;;;10.00;3.58;;;;;;;;;;10367988;28;20079;-59
2024/02/29 22:52:47;;;;;;;6.57;3.58;;;;;;;;;;10368468;28;20072;-59
2024/02/29 22:57:48;;;;;;;6.30;3.25;;;;;;;;;;10368326;28;20072;-60
2024/02/29 23:02:48;;;;;;;5.40;3.30;;;;;;;;;;10367661;28;20042;-60
2024/02/29 23:07:52;;;;;;;12.23;3.58;;;;;;;;;;10366082;28;20029;-61
2024/02/29 23:12:53;;;;;;;8.00;3.28;;;;;;;;;;10365043;28;20026;-61
2024/02/29 23:17:55;;;;;;;4.35;2.67;;;;;;;;;;10366501;28;20045;-57
2024/02/29 23:22:57;;;;;;;13.05;3.70;;;;;;;;;;10367178;28;20044;-61
2024/02/29 23:27:57;;;;;;;5.80;3.38;;;;;;;;;;10366650;28;20049;-61
2024/02/29 23:32:58;;;;;;;5.30;3.35;;;;;;;;;;10367026;28;20029;-60
2024/02/29 23:37:59;;;;;;;7.25;3.40;;;;;;;;;;10366647;28;20590;-61
2024/02/29 23:42:59;;;;;;;6.28;3.58;;;;;;;;;;10366539;28;20112;-61
2024/02/29 23:48:00;;;;;;;8.75;3.80;;;;;;;;;;10366463;28;20273;-61
2024/02/29 23:53:00;;;;;;;3.45;2.67;;;;;;;;;;10365836;28;20536;-60
2024/02/29 23:58:01;;;;;;;10.38;3.85;;;;;;;;;;10366292;28;20474;-61
